createdAt,value
2017-05-30T00:01:43.988Z,19.60
2017-05-30T00:04:11.187Z,19.70
2017-05-30T00:06:38.339Z,19.80
2017-05-30T00:09:05.543Z,19.70
2017-05-30T00:11:32.786Z,19.70
2017-05-30T00:14:00.052Z,19.70
2017-05-30T00:16:27.263Z,19.60
2017-05-30T00:18:54.445Z,19.60
2017-05-30T00:21:21.639Z,19.60
2017-05-30T00:23:49.068Z,19.50
2017-05-30T00:26:16.301Z,19.60
2017-05-30T00:28:43.488Z,19.60
2017-05-30T00:31:10.708Z,19.60
2017-05-30T00:33:37.864Z,19.60
2017-05-30T00:36:05.008Z,19.60
2017-05-30T00:38:32.221Z,19.60
2017-05-30T00:40:59.411Z,19.70
2017-05-30T00:43:26.579Z,19.70
2017-05-30T00:45:53.790Z,19.70
2017-05-30T00:48:21.021Z,19.60
2017-05-30T00:50:48.270Z,19.50
2017-05-30T00:53:15.432Z,19.30
2017-05-30T00:55:42.655Z,19.20
2017-05-30T00:58:09.864Z,19.20
2017-05-30T01:00:37.040Z,19.20
2017-05-30T01:03:04.435Z,19.20
2017-05-30T01:05:31.604Z,19.20
2017-05-30T01:07:58.850Z,19.30
2017-05-30T01:10:26.090Z,19.30
2017-05-30T01:12:53.288Z,19.30
2017-05-30T01:15:20.492Z,19.30
2017-05-30T01:17:47.704Z,19.30
2017-05-30T01:20:14.920Z,19.40
2017-05-30T01:22:42.144Z,19.40
2017-05-30T01:25:09.306Z,19.40
2017-05-30T01:27:36.728Z,19.40
2017-05-30T01:30:03.985Z,19.40
2017-05-30T01:32:31.158Z,19.40
2017-05-30T01:34:58.372Z,19.40
2017-05-30T01:37:25.604Z,19.50
2017-05-30T01:39:52.777Z,19.50
2017-05-30T01:42:19.980Z,19.40
2017-05-30T01:44:47.177Z,19.40
2017-05-30T01:47:14.352Z,19.50
2017-05-30T01:49:41.578Z,19.60
2017-05-30T01:52:08.782Z,19.70
2017-05-30T01:54:36.037Z,19.90
2017-05-30T01:57:03.174Z,20.00
2017-05-30T01:59:30.412Z,20.10
2017-05-30T02:01:57.631Z,20.10
2017-05-30T02:04:24.804Z,20.20
2017-05-30T02:06:51.992Z,20.20
2017-05-30T02:09:19.200Z,20.20
2017-05-30T02:11:46.515Z,20.20
2017-05-30T02:14:13.723Z,20.20
2017-05-30T02:16:40.941Z,20.10
2017-05-30T02:19:08.132Z,20.10
2017-05-30T02:21:35.323Z,20.10
2017-05-30T02:24:02.776Z,20.10
2017-05-30T02:26:29.961Z,20.00
2017-05-30T02:28:57.189Z,20.00
2017-05-30T02:31:24.364Z,20.00
2017-05-30T02:33:51.542Z,19.90
2017-05-30T02:36:18.927Z,19.70
2017-05-30T02:38:46.134Z,19.60
2017-05-30T02:41:13.348Z,19.60
2017-05-30T02:43:40.716Z,19.50
2017-05-30T02:46:07.992Z,19.40
2017-05-30T02:48:35.184Z,19.10
2017-05-30T02:51:02.489Z,19.00
2017-05-30T02:53:29.652Z,19.00
2017-05-30T02:55:56.890Z,18.80
2017-05-30T02:58:24.096Z,18.80
2017-05-30T03:00:51.298Z,18.70
2017-05-30T03:03:18.553Z,18.60
2017-05-30T03:05:45.727Z,18.60
2017-05-30T03:08:12.887Z,18.50
2017-05-30T03:10:40.368Z,18.50
2017-05-30T03:13:07.587Z,18.50
2017-05-30T03:15:34.791Z,18.40
2017-05-30T03:18:02.009Z,18.40
2017-05-30T03:20:29.180Z,18.40
2017-05-30T03:22:56.380Z,18.40
2017-05-30T03:25:23.578Z,18.50
2017-05-30T03:27:50.791Z,18.50
2017-05-30T03:30:18.197Z,18.60
2017-05-30T03:32:45.452Z,18.50
2017-05-30T03:35:12.730Z,18.50
2017-05-30T03:37:39.952Z,18.50
2017-05-30T03:40:07.231Z,18.50
2017-05-30T03:42:34.659Z,18.50
2017-05-30T03:45:01.904Z,18.40
2017-05-30T03:47:29.116Z,18.30
2017-05-30T03:49:56.326Z,18.10
2017-05-30T03:52:23.537Z,18.00
2017-05-30T03:54:50.700Z,18.00
2017-05-30T03:57:17.897Z,18.00
2017-05-30T03:59:45.116Z,18.20
2017-05-30T04:02:12.395Z,18.30
2017-05-30T04:04:39.614Z,18.40
2017-05-30T04:07:06.984Z,18.50
2017-05-30T04:09:34.159Z,18.60
2017-05-30T04:12:01.417Z,18.70
2017-05-30T04:14:28.612Z,18.70
2017-05-30T04:16:55.825Z,18.70
2017-05-30T04:19:23.280Z,18.80
2017-05-30T04:21:50.443Z,18.90
2017-05-30T04:24:17.588Z,18.80
2017-05-30T04:26:44.831Z,18.90
2017-05-30T04:29:12.005Z,18.90
2017-05-30T04:31:39.233Z,19.00
2017-05-30T04:34:06.452Z,18.90
2017-05-30T04:36:33.694Z,18.80
2017-05-30T04:39:00.871Z,18.60
2017-05-30T04:41:28.100Z,18.30
2017-05-30T04:43:55.331Z,18.30
2017-05-30T04:46:22.544Z,18.40
2017-05-30T04:48:49.707Z,18.50
2017-05-30T04:51:16.919Z,18.60
2017-05-30T04:53:44.162Z,18.70
2017-05-30T04:56:11.753Z,18.80
2017-05-30T04:58:39.002Z,19.00
2017-05-30T05:01:06.209Z,19.20
2017-05-30T05:03:33.435Z,19.40
2017-05-30T05:06:00.652Z,19.40
2017-05-30T05:08:28.063Z,19.30
2017-05-30T05:10:55.300Z,19.30
2017-05-30T05:13:22.527Z,19.30
2017-05-30T05:15:49.782Z,19.40
2017-05-30T05:18:17.029Z,19.30
2017-05-30T05:20:44.328Z,19.20
2017-05-30T05:23:11.501Z,19.40
2017-05-30T05:25:38.731Z,19.60
2017-05-30T05:28:05.896Z,19.80
2017-05-30T05:30:33.091Z,19.90
2017-05-30T05:33:00.315Z,20.00
2017-05-30T05:35:27.551Z,20.30
2017-05-30T05:37:54.739Z,20.50
2017-05-30T05:40:22.027Z,20.70
2017-05-30T05:42:49.236Z,20.90
2017-05-30T05:45:16.531Z,21.00
2017-05-30T05:47:43.759Z,21.10
2017-05-30T05:50:10.988Z,21.10
2017-05-30T05:52:38.238Z,21.10
2017-05-30T05:55:05.465Z,21.10
2017-05-30T05:57:32.829Z,21.00
2017-05-30T06:00:00.040Z,20.90
2017-05-30T06:02:27.215Z,21.00
2017-05-30T06:04:54.442Z,21.20
2017-05-30T06:07:21.605Z,21.30
2017-05-30T06:09:49.021Z,21.50
2017-05-30T06:12:16.321Z,21.60
2017-05-30T06:14:43.483Z,21.90
2017-05-30T06:17:10.731Z,22.10
2017-05-30T06:19:37.972Z,22.30
2017-05-30T06:22:05.162Z,22.60
2017-05-30T06:24:32.632Z,22.70
2017-05-30T06:26:59.816Z,22.70
2017-05-30T06:29:26.967Z,22.60
2017-05-30T06:31:54.189Z,22.60
2017-05-30T06:34:22.897Z,22.40
2017-05-30T06:36:50.079Z,21.90
2017-05-30T06:39:17.299Z,21.90
2017-05-30T06:41:44.468Z,21.90
2017-05-30T06:44:11.668Z,22.30
2017-05-30T06:46:38.947Z,22.50
2017-05-30T06:49:06.181Z,22.70
2017-05-30T06:51:33.432Z,22.80
2017-05-30T06:54:00.883Z,23.00
2017-05-30T06:56:28.072Z,23.10
2017-05-30T06:58:55.332Z,22.90
2017-05-30T07:01:22.552Z,22.90
2017-05-30T07:03:49.740Z,22.70
2017-05-30T07:06:16.957Z,22.50
2017-05-30T07:08:44.148Z,22.80
2017-05-30T07:11:11.331Z,23.10
2017-05-30T07:13:38.724Z,23.40
2017-05-30T07:16:06.031Z,23.80
2017-05-30T07:18:33.204Z,23.70
2017-05-30T07:21:00.531Z,23.80
2017-05-30T07:23:27.780Z,23.70
2017-05-30T07:25:54.970Z,23.50
2017-05-30T07:28:22.329Z,23.50
2017-05-30T07:30:50.709Z,23.80
2017-05-30T07:33:18.128Z,23.90
2017-05-30T07:35:45.332Z,23.90
2017-05-30T07:38:12.584Z,24.20
2017-05-30T07:40:39.789Z,24.90
2017-05-30T07:43:07.031Z,25.30
2017-05-30T07:45:34.312Z,25.30
2017-05-30T07:48:01.516Z,26.20
2017-05-30T07:50:28.727Z,28.10
2017-05-30T07:52:56.112Z,29.10
2017-05-30T07:55:23.366Z,30.20
2017-05-30T07:57:50.874Z,30.40
2017-05-30T08:00:18.129Z,29.10
2017-05-30T08:02:45.343Z,28.80
2017-05-30T08:05:12.662Z,29.60
2017-05-30T08:07:39.885Z,29.90
2017-05-30T08:10:07.107Z,29.50
2017-05-30T08:12:34.467Z,30.40
2017-05-30T08:15:01.715Z,30.40
2017-05-30T08:17:29.003Z,30.70
2017-05-30T08:19:56.238Z,30.90
2017-05-30T08:22:23.432Z,30.30
2017-05-30T08:24:50.848Z,29.70
2017-05-30T08:27:18.212Z,29.80
2017-05-30T08:29:45.428Z,30.10
2017-05-30T08:32:12.638Z,29.50
2017-05-30T08:34:39.904Z,29.30
2017-05-30T08:37:07.106Z,28.80
2017-05-30T08:39:34.365Z,28.20
2017-05-30T08:42:01.672Z,27.90
2017-05-30T08:44:28.939Z,27.70
2017-05-30T08:46:56.132Z,27.20
2017-05-30T08:49:23.353Z,27.00
2017-05-30T08:51:50.718Z,27.10
2017-05-30T08:54:17.920Z,27.20
2017-05-30T08:56:45.079Z,27.10
2017-05-30T08:59:12.328Z,26.80
2017-05-30T09:01:39.536Z,26.70
2017-05-30T09:04:06.728Z,26.70
2017-05-30T09:06:33.905Z,26.60
2017-05-30T09:09:01.145Z,26.30
2017-05-30T09:11:28.349Z,26.30
2017-05-30T09:13:55.570Z,26.30
2017-05-30T09:16:22.821Z,26.50
2017-05-30T09:18:50.055Z,26.50
2017-05-30T09:21:17.255Z,26.60
2017-05-30T09:23:44.593Z,26.70
2017-05-30T09:26:11.931Z,26.70
2017-05-30T09:28:39.145Z,26.60
2017-05-30T09:31:06.393Z,26.40
2017-05-30T09:33:34.119Z,26.50
2017-05-30T09:36:01.392Z,26.60
2017-05-30T09:38:28.640Z,26.60
2017-05-30T09:40:55.815Z,26.80
2017-05-30T09:43:23.067Z,27.00
2017-05-30T09:45:50.368Z,27.20
2017-05-30T09:48:17.561Z,27.40
2017-05-30T09:50:44.798Z,27.60
2017-05-30T09:53:13.002Z,27.80
2017-05-30T09:55:40.180Z,28.00
2017-05-30T09:58:07.537Z,28.20
2017-05-30T10:00:34.710Z,28.40
2017-05-30T10:03:01.964Z,28.50
2017-05-30T10:05:29.184Z,28.70
2017-05-30T10:07:56.374Z,28.90
2017-05-30T10:10:23.605Z,29.20
2017-05-30T10:12:50.820Z,29.60
2017-05-30T10:15:17.997Z,29.70
2017-05-30T10:17:45.295Z,30.00
2017-05-30T10:20:12.532Z,30.60
2017-05-30T10:22:39.744Z,31.30
2017-05-30T10:25:06.979Z,31.30
2017-05-30T10:27:34.286Z,31.80
2017-05-30T10:30:01.551Z,32.80
2017-05-30T10:32:28.804Z,33.10
2017-05-30T10:34:56.027Z,33.20
2017-05-30T10:37:23.313Z,32.80
2017-05-30T10:39:50.494Z,32.50
2017-05-30T10:42:17.724Z,32.90
2017-05-30T10:44:44.960Z,33.10
2017-05-30T10:47:15.829Z,34.00
2017-05-30T10:49:42.980Z,34.40
2017-05-30T10:52:10.261Z,34.00
2017-05-30T10:54:37.486Z,34.00
2017-05-30T10:57:04.815Z,33.10
2017-05-30T10:59:32.004Z,32.30
2017-05-30T11:01:59.460Z,31.90
2017-05-30T11:04:26.705Z,31.50
2017-05-30T11:06:53.915Z,31.10
2017-05-30T11:09:21.127Z,31.00
2017-05-30T11:11:48.563Z,30.70
2017-05-30T11:14:15.809Z,30.40
2017-05-30T11:16:42.983Z,30.90
2017-05-30T11:19:10.235Z,31.80
2017-05-30T11:21:37.469Z,32.50
2017-05-30T11:24:05.639Z,31.90
2017-05-30T11:26:34.788Z,31.30
2017-05-30T11:29:01.945Z,31.10
2017-05-30T11:31:29.153Z,31.00
2017-05-30T11:33:56.420Z,31.50
2017-05-30T11:36:23.632Z,31.90
2017-05-30T11:38:50.865Z,32.40
2017-05-30T11:41:18.119Z,33.20
2017-05-30T11:43:45.284Z,33.70
2017-05-30T11:46:12.565Z,34.00
2017-05-30T11:48:39.786Z,34.30
2017-05-30T11:51:06.999Z,34.60
2017-05-30T11:53:34.251Z,35.20
2017-05-30T11:56:01.434Z,35.80
2017-05-30T11:58:28.631Z,35.10
2017-05-30T12:00:56.008Z,35.40
2017-05-30T12:03:23.197Z,35.30
2017-05-30T12:05:50.503Z,36.00
2017-05-30T12:08:17.700Z,35.90
2017-05-30T12:10:44.864Z,35.10
2017-05-30T12:13:12.099Z,36.10
2017-05-30T12:15:39.352Z,36.80
2017-05-30T12:18:06.816Z,36.30
2017-05-30T12:20:34.059Z,36.00
2017-05-30T12:23:01.289Z,34.90
2017-05-30T12:25:28.519Z,33.50
2017-05-30T12:27:55.776Z,32.60
2017-05-30T12:30:22.965Z,31.90
2017-05-30T12:32:50.216Z,31.60
2017-05-30T12:35:17.403Z,31.50
2017-05-30T12:37:44.577Z,31.40
2017-05-30T12:40:11.823Z,31.60
2017-05-30T12:42:39.047Z,31.80
2017-05-30T12:45:06.379Z,31.20
2017-05-30T12:47:33.691Z,31.00
2017-05-30T12:50:00.929Z,30.70
2017-05-30T12:52:28.128Z,30.20
2017-05-30T12:54:55.387Z,30.50
2017-05-30T12:57:22.634Z,32.60
2017-05-30T12:59:49.875Z,35.00
2017-05-30T13:02:17.115Z,36.20
2017-05-30T13:04:44.354Z,36.50
2017-05-30T13:07:11.539Z,36.80
2017-05-30T13:09:38.807Z,37.20
2017-05-30T13:12:06.007Z,38.20
2017-05-30T13:14:33.299Z,38.20
2017-05-30T13:17:01.353Z,37.10
2017-05-30T13:19:28.532Z,37.90
2017-05-30T13:21:56.212Z,38.20
2017-05-30T13:24:23.408Z,38.70
2017-05-30T13:26:50.640Z,39.20
2017-05-30T13:29:17.844Z,39.30
2017-05-30T13:31:45.016Z,38.40
2017-05-30T13:34:12.397Z,38.60
2017-05-30T13:36:39.554Z,37.60
2017-05-30T13:39:06.785Z,37.10
2017-05-30T13:41:34.096Z,37.20
2017-05-30T13:44:01.309Z,36.70
2017-05-30T13:46:28.589Z,36.90
2017-05-30T13:48:55.784Z,36.90
2017-05-30T13:51:22.992Z,37.40
2017-05-30T13:53:50.235Z,37.10
2017-05-30T13:56:17.503Z,36.90
2017-05-30T13:58:44.734Z,37.90
2017-05-30T14:01:11.945Z,38.00
2017-05-30T14:03:39.260Z,37.90
2017-05-30T14:06:06.493Z,37.70
2017-05-30T14:08:33.696Z,38.00
2017-05-30T14:11:00.872Z,37.80
2017-05-30T14:13:28.071Z,37.60
2017-05-30T14:15:55.264Z,37.80
2017-05-30T14:18:22.524Z,38.00
2017-05-30T14:20:49.772Z,38.20
2017-05-30T14:23:17.210Z,38.80
2017-05-30T14:25:44.654Z,38.40
2017-05-30T14:28:11.854Z,39.30
2017-05-30T14:30:39.088Z,39.90
2017-05-30T14:33:06.319Z,39.90
2017-05-30T14:35:33.535Z,39.70
2017-05-30T14:38:00.851Z,38.20
2017-05-30T14:40:28.048Z,37.10
2017-05-30T14:42:55.289Z,37.30
2017-05-30T14:45:22.548Z,37.50
2017-05-30T14:47:49.733Z,38.20
2017-05-30T14:50:16.993Z,38.60
2017-05-30T14:52:44.321Z,38.70
2017-05-30T14:55:11.471Z,38.10
2017-05-30T14:57:38.721Z,38.20
2017-05-30T15:00:05.903Z,38.10
2017-05-30T15:02:33.093Z,38.10
2017-05-30T15:05:00.361Z,38.20
2017-05-30T15:07:27.536Z,38.30
2017-05-30T15:09:54.799Z,37.50
2017-05-30T15:12:22.168Z,36.70
2017-05-30T15:14:49.405Z,35.70
2017-05-30T15:17:16.652Z,35.20
2017-05-30T15:19:43.922Z,35.50
2017-05-30T15:22:11.060Z,36.50
2017-05-30T15:24:38.225Z,37.00
2017-05-30T15:27:05.474Z,37.00
2017-05-30T15:29:32.732Z,36.20
2017-05-30T15:31:59.996Z,34.90
2017-05-30T15:34:27.440Z,33.60
2017-05-30T15:36:55.003Z,32.60
2017-05-30T15:39:24.035Z,32.10
2017-05-30T15:41:51.774Z,32.60
2017-05-30T15:44:19.764Z,32.80
2017-05-30T15:46:47.691Z,32.50
2017-05-30T15:49:15.558Z,31.50
2017-05-30T15:51:44.450Z,30.70
2017-05-30T15:54:11.801Z,30.30
2017-05-30T15:56:39.192Z,29.10
2017-05-30T15:59:06.620Z,28.50
2017-05-30T16:01:33.928Z,28.00
2017-05-30T16:04:02.351Z,27.90
2017-05-30T16:06:29.573Z,27.80
2017-05-30T16:08:56.781Z,27.60
2017-05-30T16:11:24.032Z,27.60
2017-05-30T16:13:51.459Z,27.50
2017-05-30T16:16:18.693Z,27.60
2017-05-30T16:18:45.990Z,28.00
2017-05-30T16:21:13.277Z,27.80
2017-05-30T16:23:40.487Z,27.50
2017-05-30T16:26:07.740Z,27.30
2017-05-30T16:28:35.050Z,27.20
2017-05-30T16:31:02.237Z,27.10
2017-05-30T16:33:29.588Z,27.20
2017-05-30T16:35:56.808Z,27.10
2017-05-30T16:38:24.182Z,26.90
2017-05-30T16:40:51.476Z,26.80
2017-05-30T16:43:18.795Z,26.80
2017-05-30T16:45:46.171Z,26.60
2017-05-30T16:48:13.588Z,26.70
2017-05-30T16:50:41.450Z,26.90
2017-05-30T16:53:08.706Z,26.70
2017-05-30T16:55:36.161Z,26.80
2017-05-30T16:58:03.512Z,27.10
2017-05-30T17:00:30.786Z,27.00
2017-05-30T17:02:58.250Z,27.10
2017-05-30T17:05:25.484Z,27.00
2017-05-30T17:07:52.908Z,26.80
2017-05-30T17:10:20.142Z,27.00
2017-05-30T17:12:47.572Z,27.40
2017-05-30T17:15:15.660Z,27.40
2017-05-30T17:17:43.008Z,27.40
2017-05-30T17:20:10.652Z,27.50
2017-05-30T17:22:37.868Z,27.10
2017-05-30T17:25:05.136Z,27.10
2017-05-30T17:27:32.936Z,27.00
2017-05-30T17:30:00.238Z,27.20
2017-05-30T17:32:27.438Z,27.20
2017-05-30T17:34:54.733Z,27.20
2017-05-30T17:37:21.258Z,27.20
2017-05-30T17:39:47.896Z,27.10
2017-05-30T17:42:14.521Z,27.10
2017-05-30T17:44:41.817Z,27.20
2017-05-30T17:47:09.122Z,27.10
2017-05-30T17:49:36.511Z,27.00
2017-05-30T17:52:03.841Z,26.90
2017-05-30T17:54:31.618Z,26.80
2017-05-30T17:56:58.885Z,26.60
2017-05-30T17:59:26.186Z,26.40
2017-05-30T18:01:53.420Z,26.30
2017-05-30T18:04:20.737Z,26.30
2017-05-30T18:06:48.087Z,26.10
2017-05-30T18:09:15.304Z,26.00
2017-05-30T18:11:42.605Z,25.80
2017-05-30T18:14:09.868Z,25.50
2017-05-30T18:16:37.235Z,25.30
2017-05-30T18:19:04.709Z,25.20
2017-05-30T18:21:31.950Z,25.20
2017-05-30T18:23:59.238Z,25.20
2017-05-30T18:26:26.530Z,25.10
2017-05-30T18:28:53.748Z,25.00
2017-05-30T18:31:20.352Z,25.00
2017-05-30T18:33:47.635Z,24.80
2017-05-30T18:36:14.927Z,24.70
2017-05-30T18:38:42.274Z,24.50
2017-05-30T18:41:09.684Z,24.50
2017-05-30T18:43:37.021Z,24.50
2017-05-30T18:46:04.739Z,24.40
2017-05-30T18:48:32.032Z,24.30
2017-05-30T18:50:59.379Z,24.30
2017-05-30T18:53:26.685Z,24.20
2017-05-30T18:55:53.980Z,24.10
2017-05-30T18:58:20.697Z,24.10
2017-05-30T19:00:47.232Z,24.10
2017-05-30T19:03:13.860Z,24.00
2017-05-30T19:05:41.209Z,23.80
2017-05-30T19:08:08.445Z,23.60
2017-05-30T19:10:35.827Z,23.50
2017-05-30T19:13:03.171Z,23.40
2017-05-30T19:15:29.745Z,23.30
2017-05-30T19:17:58.864Z,23.20
2017-05-30T19:20:25.561Z,23.10
2017-05-30T19:22:52.869Z,23.00
2017-05-30T19:25:35.013Z,23.00
2017-05-30T19:28:02.372Z,22.90
2017-05-30T19:30:29.599Z,22.90
2017-05-30T19:32:56.962Z,22.80
2017-05-30T19:35:24.411Z,22.50
2017-05-30T19:37:51.780Z,22.60
2017-05-30T19:40:18.397Z,22.50
2017-05-30T19:42:45.640Z,22.40
2017-05-30T19:45:13.095Z,22.40
2017-05-30T19:47:39.795Z,22.30
2017-05-30T19:50:07.091Z,22.20
2017-05-30T19:52:33.600Z,22.10
2017-05-30T19:55:00.926Z,22.00
2017-05-30T19:57:28.296Z,21.90
2017-05-30T19:59:54.796Z,21.80
2017-05-30T20:02:22.132Z,21.70
2017-05-30T20:05:03.511Z,21.70
2017-05-30T20:07:30.907Z,21.60
2017-05-30T20:09:58.821Z,21.60
2017-05-30T20:12:25.510Z,21.60
2017-05-30T20:14:52.237Z,21.60
2017-05-30T20:17:19.728Z,21.60
2017-05-30T20:19:47.049Z,21.60
2017-05-30T20:22:13.692Z,21.60
2017-05-30T20:24:41.010Z,21.60
2017-05-30T20:27:07.866Z,21.60
2017-05-30T20:29:35.101Z,21.50
2017-05-30T20:32:02.327Z,21.50
2017-05-30T20:34:29.582Z,21.40
2017-05-30T20:36:56.972Z,21.30
2017-05-30T20:39:24.298Z,21.20
2017-05-30T20:41:50.941Z,21.20
2017-05-30T20:44:18.306Z,20.90
2017-05-30T20:46:45.905Z,20.80
2017-05-30T20:49:12.637Z,20.80
2017-05-30T20:51:41.080Z,20.70
2017-05-30T20:54:07.852Z,20.60
2017-05-30T20:56:34.371Z,20.70
2017-05-30T20:59:02.483Z,20.50
2017-05-30T21:01:29.731Z,20.50
2017-05-30T21:03:57.119Z,20.40
2017-05-30T21:06:24.496Z,20.20
2017-05-30T21:08:51.859Z,20.10
2017-05-30T21:11:19.399Z,20.10
2017-05-30T21:13:46.900Z,20.00
2017-05-30T21:16:14.521Z,19.90
2017-05-30T21:18:41.937Z,20.00
2017-05-30T21:21:09.189Z,20.00
2017-05-30T21:23:36.502Z,20.20
2017-05-30T21:26:03.758Z,20.10
2017-05-30T21:28:30.483Z,20.10
2017-05-30T21:30:57.851Z,20.10
2017-05-30T21:33:25.131Z,20.00
2017-05-30T21:35:52.540Z,20.00
2017-05-30T21:38:19.893Z,20.10
2017-05-30T21:40:46.472Z,20.00
2017-05-30T21:43:13.847Z,20.00
2017-05-30T21:45:41.224Z,19.90
2017-05-30T21:48:08.828Z,19.90
2017-05-30T21:50:36.083Z,19.80
2017-05-30T21:53:03.528Z,19.70
2017-05-30T21:55:30.168Z,19.70
2017-05-30T21:57:57.701Z,19.70
2017-05-30T22:00:25.110Z,19.60
2017-05-30T22:02:52.455Z,19.60
2017-05-30T22:05:19.068Z,19.60
2017-05-30T22:07:45.641Z,19.60
2017-05-30T22:10:12.148Z,19.60
2017-05-30T22:12:39.090Z,19.60
2017-05-30T22:15:06.374Z,19.60
2017-05-30T22:17:35.628Z,19.60
2017-05-30T22:20:02.910Z,19.70
2017-05-30T22:22:29.516Z,19.70
2017-05-30T22:24:56.783Z,19.90
2017-05-30T22:27:24.163Z,19.80
2017-05-30T22:29:51.471Z,19.90
2017-05-30T22:32:20.398Z,19.80
2017-05-30T22:34:49.768Z,19.80
2017-05-30T22:37:18.976Z,19.80
2017-05-30T22:39:45.571Z,19.80
2017-05-30T22:42:12.888Z,19.80
2017-05-30T22:44:40.131Z,19.80
2017-05-30T22:47:07.460Z,19.70
2017-05-30T22:49:34.709Z,19.70
2017-05-30T22:52:02.033Z,19.80
2017-05-30T22:54:28.530Z,19.70
2017-05-30T22:56:55.788Z,19.80
2017-05-30T22:59:22.979Z,19.70
2017-05-30T23:01:50.256Z,19.70
2017-05-30T23:04:16.835Z,19.70
2017-05-30T23:06:44.109Z,19.80
2017-05-30T23:09:11.427Z,19.70
2017-05-30T23:11:38.708Z,19.80
2017-05-30T23:14:05.307Z,19.90
2017-05-30T23:16:32.924Z,19.90
2017-05-30T23:18:59.457Z,19.90
2017-05-30T23:21:26.782Z,20.00
2017-05-30T23:23:54.156Z,20.00
2017-05-30T23:26:21.448Z,20.00
2017-05-30T23:28:48.688Z,20.00
2017-05-30T23:31:15.991Z,20.00
2017-05-30T23:33:43.245Z,20.00
2017-05-30T23:36:10.567Z,19.90
2017-05-30T23:38:37.947Z,19.90
2017-05-30T23:41:06.888Z,19.90
2017-05-30T23:43:33.429Z,19.90
2017-05-30T23:46:00.712Z,19.80
2017-05-30T23:48:27.908Z,19.70
2017-05-30T23:50:55.092Z,19.70
2017-05-30T23:53:22.520Z,19.60
2017-05-30T23:55:48.986Z,19.60
2017-05-30T23:58:15.467Z,19.50
